Mound City, South Dakota
Current Conditions -  °F | °C
As of 8:52 AM on Sunday 23 Nov 2014 (Local Time) from KMBG Reporting Station
Overcast Overcast  
Wind Chill: 31°   Ceiling: 4000
Heat Index: 39°   Visibility: 10mi
Dew Point: 31°   Wind: 14mph
Humidity: 73%   Direction: 300°WNW
Pressure: 29.5"   Gusts: NA
Location:  45.73°N, 100.07°W
Report Text: KMBG 231452Z AUTO 30012KT 10SM OVC040 04/M01 A2950 RMK AO2 SLP000 T00391006 50002
Loading
Personal Weather Stations






























Interactive Weather Map New forecast layout! Learn more

10-Day Weather Forecast

Advertisements
Track Severe Weather on mobile